Terminal Aerodrome Forecast
Issued by NWS

Home | Current Version | Previous Version | Text Only | Print | Product List | Glossary On
Versions: 1 2 3 4 5 6 7 8 9 10 11 12 13 14 15 16 17 18 19 20 21 22 23 24 25 26 27 28 29 30 31
000
FTUS41 KALY 180400 AAB
TAFPSF
TAF AMD
KPSF 180445Z 1805/1824 VRB03KT 5SM BR SCT001
      TEMPO 1805/1809 1/4SM FG BKN001
     FM180900 00000KT 3/4SM BR BKN001
     FM181300 30003KT P6SM BKN060
     FM181500 30006KT P6SM BKN060=

USA.gov is the U.S. government's official web portal to all federal, state and local government web resources and services.